createdAt,value
2023-04-01T00:01:46.900Z,9.71
2023-04-01T00:04:49.619Z,9.67
2023-04-01T00:07:52.208Z,9.60
2023-04-01T00:10:55.642Z,9.56
2023-04-01T00:13:58.129Z,9.50
2023-04-01T00:17:00.681Z,9.42
2023-04-01T00:20:04.043Z,9.42
2023-04-01T00:23:06.960Z,9.42
2023-04-01T00:26:09.605Z,9.45
2023-04-01T00:29:13.937Z,9.57
2023-04-01T00:32:16.401Z,9.59
2023-04-01T00:35:19.053Z,9.61
2023-04-01T00:38:21.776Z,9.82
2023-04-01T00:41:24.405Z,10.02
2023-04-01T00:44:33.755Z,10.12
2023-04-01T00:47:36.383Z,10.12
2023-04-01T00:50:41.987Z,10.13
2023-04-01T00:53:48.081Z,10.10
2023-04-01T00:57:01.709Z,10.04
2023-04-01T01:00:08.389Z,10.00
2023-04-01T01:03:11.024Z,10.01
2023-04-01T01:06:40.164Z,9.97
2023-04-01T01:09:55.421Z,9.91
2023-04-01T01:12:57.903Z,9.85
2023-04-01T01:16:11.947Z,9.84
2023-04-01T01:20:12.750Z,9.83
2023-04-01T01:23:51.655Z,9.82
2023-04-01T01:27:16.048Z,9.80
2023-04-01T01:30:47.674Z,9.78
2023-04-01T01:34:20.937Z,9.77
2023-04-01T01:37:28.447Z,9.79
2023-04-01T01:40:33.698Z,9.81
2023-04-01T01:43:49.589Z,9.84
2023-04-01T01:46:52.919Z,9.89
2023-04-01T01:49:56.847Z,9.96
2023-04-01T01:53:13.298Z,10.02
2023-04-01T01:56:19.402Z,10.07
2023-04-01T01:59:26.026Z,10.11
2023-04-01T02:02:32.684Z,10.13
2023-04-01T02:05:36.601Z,10.15
2023-04-01T02:09:05.389Z,10.21
2023-04-01T02:12:12.104Z,10.23
2023-04-01T02:15:19.545Z,10.23
2023-04-01T02:18:23.390Z,10.20
2023-04-01T02:21:31.273Z,10.28
2023-04-01T02:24:39.152Z,10.29
2023-04-01T02:27:44.742Z,10.27
2023-04-01T02:30:49.263Z,10.25
2023-04-01T02:33:52.368Z,10.24
2023-04-01T02:36:58.314Z,10.21
2023-04-01T02:40:07.563Z,10.05
2023-04-01T02:43:10.053Z,9.95
2023-04-01T02:46:12.538Z,9.93
2023-04-01T02:49:15.474Z,9.93
2023-04-01T02:52:18.062Z,9.91
2023-04-01T02:55:20.697Z,9.91
2023-04-01T02:58:23.274Z,9.91
2023-04-01T03:01:26.103Z,9.87
2023-04-01T03:04:29.226Z,9.92
2023-04-01T03:07:31.719Z,9.95
2023-04-01T03:10:34.300Z,10.03
2023-04-01T03:13:37.327Z,10.17
2023-04-01T03:16:40.058Z,10.14
2023-04-01T03:19:42.893Z,10.13
2023-04-01T03:22:47.794Z,10.08
2023-04-01T03:25:50.658Z,10.07
2023-04-01T03:28:53.766Z,9.91
2023-04-01T03:31:58.930Z,9.97
2023-04-01T03:35:01.609Z,9.93
2023-04-01T03:38:04.436Z,10.00
2023-04-01T03:41:07.329Z,9.93
2023-04-01T03:44:09.912Z,9.81
2023-04-01T03:47:12.506Z,9.80
2023-04-01T03:50:14.997Z,9.82
2023-04-01T03:53:18.640Z,9.92
2023-04-01T03:56:23.112Z,9.90
2023-04-01T03:59:25.972Z,9.91
2023-04-01T04:02:28.895Z,9.92
2023-04-01T04:05:32.394Z,9.83
2023-04-01T04:08:35.129Z,9.95
2023-04-01T04:11:37.977Z,9.86
2023-04-01T04:14:41.226Z,9.76
2023-04-01T04:17:45.637Z,9.64
2023-04-01T04:20:52.052Z,9.47
2023-04-01T04:23:56.083Z,9.32
2023-04-01T04:26:58.806Z,9.33
2023-04-01T04:30:01.556Z,9.36
2023-04-01T04:33:06.474Z,9.23
2023-04-01T04:36:09.384Z,9.19
2023-04-01T04:39:11.956Z,9.15
2023-04-01T04:42:17.595Z,9.11
2023-04-01T04:45:20.276Z,9.01
2023-04-01T04:48:29.793Z,8.92
2023-04-01T04:51:35.017Z,8.85
2023-04-01T04:54:37.726Z,8.93
2023-04-01T04:57:41.215Z,8.98
2023-04-01T05:00:44.377Z,8.99
2023-04-01T05:03:54.574Z,9.12
2023-04-01T05:06:57.139Z,9.16
2023-04-01T05:10:00.062Z,9.17
2023-04-01T05:13:03.421Z,9.25
2023-04-01T05:16:10.400Z,9.36
2023-04-01T05:19:13.539Z,9.42
2023-04-01T05:22:16.381Z,9.44
2023-04-01T05:25:19.726Z,9.48
2023-04-01T05:28:22.175Z,9.50
2023-04-01T05:31:25.306Z,9.52
2023-04-01T05:34:29.185Z,9.60
2023-04-01T05:37:31.886Z,9.66
2023-04-01T05:40:39.070Z,9.74
2023-04-01T05:43:42.915Z,9.81
2023-04-01T05:47:20.891Z,9.92
2023-04-01T05:50:25.125Z,9.96
2023-04-01T05:53:27.807Z,10.03
2023-04-01T05:56:30.459Z,10.10
2023-04-01T05:59:32.986Z,10.15
2023-04-01T06:02:36.050Z,10.23
2023-04-01T06:05:44.043Z,10.29
2023-04-01T06:08:46.486Z,10.38
2023-04-01T06:12:00.924Z,10.49
2023-04-01T06:15:34.591Z,10.62
2023-04-01T06:19:12.216Z,10.76
2023-04-01T06:22:29.302Z,10.97
2023-04-01T06:25:45.907Z,11.28
2023-04-01T06:29:08.333Z,11.30
2023-04-01T06:32:23.788Z,11.32
2023-04-01T06:35:45.494Z,11.39
2023-04-01T06:38:48.316Z,11.52
2023-04-01T06:42:09.383Z,11.44
2023-04-01T06:45:35.522Z,11.42
2023-04-01T06:49:50.525Z,11.49
2023-04-01T06:53:20.358Z,11.68
2023-04-01T06:56:44.032Z,11.67
2023-04-01T06:59:53.019Z,11.69
2023-04-01T07:03:07.727Z,11.62
2023-04-01T07:06:19.339Z,11.78
2023-04-01T07:09:39.742Z,11.96
2023-04-01T07:13:06.569Z,11.96
2023-04-01T07:16:22.762Z,12.07
2023-04-01T07:19:34.161Z,11.95
2023-04-01T07:22:52.651Z,12.28
2023-04-01T07:26:21.808Z,12.41
2023-04-01T07:29:45.861Z,12.57
2023-04-01T07:32:56.392Z,12.60
2023-04-01T07:36:06.521Z,12.80
2023-04-01T07:39:12.113Z,12.76
2023-04-01T07:42:46.231Z,12.83
2023-04-01T07:46:07.086Z,12.69
2023-04-01T07:49:22.393Z,12.62
2023-04-01T07:52:44.109Z,12.77
2023-04-01T07:56:18.443Z,12.81
2023-04-01T07:59:41.219Z,12.53
2023-04-01T08:02:58.379Z,12.57
2023-04-01T08:06:26.807Z,12.46
2023-04-01T08:10:11.023Z,12.52
2023-04-01T08:13:59.732Z,12.61
2023-04-01T08:18:06.737Z,12.70
2023-04-01T08:21:24.898Z,12.90
2023-04-01T08:24:47.596Z,12.83
2023-04-01T08:28:15.420Z,13.01
2023-04-01T08:31:24.008Z,13.13
2023-04-01T08:34:34.982Z,13.13
2023-04-01T08:37:42.360Z,13.36
2023-04-01T08:41:22.389Z,13.14
2023-04-01T08:45:13.859Z,13.54
2023-04-01T08:48:40.055Z,13.43
2023-04-01T08:52:04.026Z,13.80
2023-04-01T08:55:15.696Z,13.47
2023-04-01T08:59:03.064Z,13.76
2023-04-01T09:02:51.216Z,13.30
2023-04-01T09:06:17.720Z,13.36
2023-04-01T09:09:48.368Z,13.16
2023-04-01T09:13:14.678Z,13.43
2023-04-01T09:16:29.156Z,13.32
2023-04-01T09:19:42.910Z,13.47
2023-04-01T09:23:35.097Z,13.71
2023-04-01T09:26:40.690Z,13.55
2023-04-01T09:30:05.072Z,13.67
2023-04-01T09:33:34.130Z,13.97
2023-04-01T09:36:40.426Z,13.78
2023-04-01T09:40:14.210Z,14.02
2023-04-01T09:43:41.364Z,14.35
2023-04-01T09:47:02.823Z,14.03
2023-04-01T09:50:14.501Z,13.89
2023-04-01T09:53:37.735Z,13.87
2023-04-01T09:57:00.666Z,13.84
2023-04-01T10:00:51.613Z,13.71
2023-04-01T10:04:08.043Z,13.86
2023-04-01T10:07:26.510Z,13.89
2023-04-01T10:11:00.636Z,13.74
2023-04-01T10:14:29.178Z,13.36
2023-04-01T10:17:39.144Z,13.27
2023-04-01T10:21:20.085Z,13.40
2023-04-01T10:24:48.357Z,13.35
2023-04-01T10:28:06.511Z,13.38
2023-04-01T10:31:51.858Z,13.39
2023-04-01T10:35:27.835Z,13.48
2023-04-01T10:38:45.716Z,13.36
2023-04-01T10:42:13.299Z,13.41
2023-04-01T10:46:01.596Z,13.41
2023-04-01T10:49:41.677Z,13.42
2023-04-01T10:53:08.233Z,13.23
2023-04-01T10:56:52.974Z,13.04
2023-04-01T11:00:38.769Z,13.22
2023-04-01T11:04:19.934Z,13.85
2023-04-01T11:08:13.387Z,13.92
2023-04-01T11:11:36.795Z,14.04
2023-04-01T11:14:54.203Z,14.09
2023-04-01T11:18:19.090Z,14.28
2023-04-01T11:21:36.512Z,13.99
2023-04-01T11:25:13.441Z,13.94
2023-04-01T11:28:35.554Z,14.30
2023-04-01T11:32:27.468Z,14.04
2023-04-01T11:36:09.339Z,14.10
2023-04-01T11:39:22.645Z,14.22
2023-04-01T11:42:54.861Z,14.48
2023-04-01T11:46:25.059Z,14.41
2023-04-01T11:49:54.482Z,14.64
2023-04-01T11:53:30.314Z,14.94
2023-04-01T11:56:42.039Z,14.58
2023-04-01T11:59:47.660Z,14.83
2023-04-01T12:03:15.668Z,14.77
2023-04-01T12:06:34.313Z,15.13
2023-04-01T12:09:51.424Z,14.86
2023-04-01T12:13:29.312Z,15.01
2023-04-01T12:16:53.165Z,14.93
2023-04-01T12:20:11.446Z,15.52
2023-04-01T12:23:44.364Z,15.47
2023-04-01T12:27:24.358Z,15.58
2023-04-01T12:31:02.286Z,15.08
2023-04-01T12:34:40.444Z,15.27
2023-04-01T12:37:57.114Z,14.86
2023-04-01T12:41:12.335Z,15.68
2023-04-01T12:44:31.205Z,16.18
2023-04-01T12:48:02.278Z,16.87
2023-04-01T12:51:28.874Z,16.47
2023-04-01T12:54:49.832Z,16.70
2023-04-01T12:58:49.865Z,17.50
2023-04-01T13:02:12.748Z,17.75
2023-04-01T13:05:39.949Z,17.56
2023-04-01T13:09:00.556Z,18.51
2023-04-01T13:12:12.139Z,18.59
2023-04-01T13:15:14.641Z,17.81
2023-04-01T13:18:20.503Z,17.81
2023-04-01T13:21:47.383Z,18.32
2023-04-01T13:25:19.304Z,18.69
2023-04-01T13:28:29.828Z,18.91
2023-04-01T13:31:50.962Z,19.66
2023-04-01T13:35:07.486Z,20.24
2023-04-01T13:38:24.593Z,18.62
2023-04-01T13:41:49.032Z,19.03
2023-04-01T13:45:25.995Z,18.79
2023-04-01T13:48:56.386Z,19.27
2023-04-01T13:52:36.473Z,18.61
2023-04-01T13:56:24.505Z,17.40
2023-04-01T13:59:42.356Z,17.37
2023-04-01T14:03:09.650Z,17.02
2023-04-01T14:06:14.849Z,17.26
2023-04-01T14:09:17.785Z,18.25
2023-04-01T14:12:52.705Z,18.55
2023-04-01T14:16:21.201Z,18.53
2023-04-01T14:20:09.499Z,17.66
2023-04-01T14:23:33.486Z,17.66
2023-04-01T14:26:47.583Z,18.51
2023-04-01T14:30:21.507Z,18.50
2023-04-01T14:33:29.856Z,19.63
2023-04-01T14:36:52.812Z,19.73
2023-04-01T14:40:29.563Z,17.84
2023-04-01T14:43:48.039Z,19.36
2023-04-01T14:47:05.855Z,19.37
2023-04-01T14:50:22.843Z,18.16
2023-04-01T14:53:32.553Z,17.31
2023-04-01T14:56:40.821Z,16.65
2023-04-01T14:59:54.601Z,16.52
2023-04-01T15:03:09.359Z,16.31
2023-04-01T15:06:27.549Z,16.40
2023-04-01T15:09:44.932Z,16.35
2023-04-01T15:13:17.347Z,16.31
2023-04-01T15:16:19.877Z,16.53
2023-04-01T15:19:31.353Z,16.08
2023-04-01T15:23:03.812Z,16.05
2023-04-01T15:26:19.949Z,16.15
2023-04-01T15:29:33.839Z,16.68
2023-04-01T15:33:02.777Z,16.71
2023-04-01T15:36:26.401Z,16.57
2023-04-01T15:39:41.962Z,16.26
2023-04-01T15:43:23.296Z,15.71
2023-04-01T15:46:48.913Z,15.80
2023-04-01T15:50:03.282Z,15.72
2023-04-01T15:53:27.129Z,15.62
2023-04-01T15:56:57.140Z,15.55
2023-04-01T16:00:27.763Z,15.46
2023-04-01T16:03:43.124Z,15.31
2023-04-01T16:06:45.958Z,15.34
2023-04-01T16:10:06.390Z,15.24
2023-04-01T16:13:46.753Z,15.36
2023-04-01T16:17:17.129Z,15.64
2023-04-01T16:20:23.375Z,16.13
2023-04-01T16:23:37.838Z,16.65
2023-04-01T16:26:51.329Z,17.31
2023-04-01T16:30:20.037Z,16.55
2023-04-01T16:33:56.225Z,15.81
2023-04-01T16:37:08.297Z,15.88
2023-04-01T16:40:11.007Z,15.36
2023-04-01T16:43:22.698Z,15.43
2023-04-01T16:46:50.477Z,15.44
2023-04-01T16:50:01.173Z,15.34
2023-04-01T16:53:12.349Z,15.09
2023-04-01T16:56:28.640Z,14.75
2023-04-01T16:59:46.038Z,14.82
2023-04-01T17:03:13.080Z,14.75
2023-04-01T17:06:19.097Z,14.54
2023-04-01T17:09:30.294Z,14.23
2023-04-01T17:12:45.524Z,14.12
2023-04-01T17:16:17.517Z,14.18
2023-04-01T17:19:44.928Z,14.17
2023-04-01T17:23:04.455Z,14.07
2023-04-01T17:26:46.039Z,13.92
2023-04-01T17:30:07.881Z,13.70
2023-04-01T17:33:23.152Z,13.59
2023-04-01T17:36:52.331Z,13.59
2023-04-01T17:40:14.027Z,13.52
2023-04-01T17:44:03.915Z,13.30
2023-04-01T17:47:12.698Z,13.14
2023-04-01T17:50:36.754Z,13.04
2023-04-01T17:53:52.802Z,13.00
2023-04-01T17:57:04.223Z,12.93
2023-04-01T18:00:13.571Z,12.88
2023-04-01T18:03:19.425Z,12.85
2023-04-01T18:06:33.595Z,12.77
2023-04-01T18:09:46.456Z,12.74
2023-04-01T18:13:10.903Z,12.73
2023-04-01T18:16:13.573Z,12.68
2023-04-01T18:19:22.227Z,12.80
2023-04-01T18:22:46.512Z,12.69
2023-04-01T18:25:53.619Z,12.61
2023-04-01T18:29:03.947Z,12.55
2023-04-01T18:32:19.287Z,12.56
2023-04-01T18:36:03.946Z,12.54
2023-04-01T18:39:37.536Z,12.49
2023-04-01T18:42:55.509Z,12.40
2023-04-01T18:46:06.909Z,12.31
2023-04-01T18:49:42.075Z,12.31
2023-04-01T18:52:45.708Z,12.29
2023-04-01T18:55:59.050Z,12.25
2023-04-01T18:59:06.536Z,12.25
2023-04-01T19:02:36.043Z,12.21
2023-04-01T19:05:41.855Z,12.19
2023-04-01T19:08:45.585Z,12.18
2023-04-01T19:11:55.498Z,12.13
2023-04-01T19:15:21.071Z,12.18
2023-04-01T19:18:49.081Z,12.13
2023-04-01T19:21:54.555Z,12.02
2023-04-01T19:25:19.602Z,12.12
2023-04-01T19:28:59.060Z,12.12
2023-04-01T19:32:26.387Z,12.12
2023-04-01T19:35:34.594Z,12.15
2023-04-01T19:38:40.856Z,12.19
2023-04-01T19:42:03.085Z,12.09
2023-04-01T19:45:38.173Z,12.02
2023-04-01T19:49:05.334Z,11.94
2023-04-01T19:52:29.290Z,11.95
2023-04-01T19:55:47.465Z,11.85
2023-04-01T19:59:01.981Z,11.75
2023-04-01T20:02:09.195Z,11.67
2023-04-01T20:05:30.985Z,11.69
2023-04-01T20:09:06.459Z,11.66
2023-04-01T20:12:36.733Z,11.54
2023-04-01T20:15:44.342Z,11.56
2023-04-01T20:18:57.012Z,11.57
2023-04-01T20:22:04.322Z,11.56
2023-04-01T20:25:21.581Z,11.51
2023-04-01T20:28:38.266Z,11.41
2023-04-01T20:31:51.107Z,11.28
2023-04-01T20:35:09.910Z,11.15
2023-04-01T20:38:48.261Z,11.04
2023-04-01T20:42:14.589Z,10.91
2023-04-01T20:45:39.154Z,10.75
2023-04-01T20:49:09.515Z,10.59
2023-04-01T20:52:12.442Z,10.42
2023-04-01T20:55:37.358Z,10.24
2023-04-01T20:58:55.112Z,10.11
2023-04-01T21:02:15.218Z,9.99
2023-04-01T21:05:36.831Z,9.87
2023-04-01T21:09:00.469Z,9.76
2023-04-01T21:12:15.020Z,9.73
2023-04-01T21:15:49.071Z,9.62
2023-04-01T21:18:56.326Z,9.52
2023-04-01T21:22:24.909Z,9.46
2023-04-01T21:25:56.659Z,9.38
2023-04-01T21:29:33.274Z,9.35
2023-04-01T21:32:57.454Z,9.30
2023-04-01T21:36:02.911Z,9.36
2023-04-01T21:39:37.091Z,9.49
2023-04-01T21:43:01.654Z,9.48
2023-04-01T21:46:41.978Z,9.35
2023-04-01T21:49:47.539Z,9.28
2023-04-01T21:53:01.959Z,9.13
2023-04-01T21:56:19.550Z,9.07
2023-04-01T21:59:53.294Z,9.08
2023-04-01T22:03:27.861Z,9.01
2023-04-01T22:06:42.069Z,9.02
2023-04-01T22:10:06.203Z,8.95
2023-04-01T22:13:39.569Z,8.78
2023-04-01T22:17:06.757Z,8.64
2023-04-01T22:20:25.769Z,9.04
2023-04-01T22:23:37.741Z,8.91
2023-04-01T22:26:43.047Z,8.99
2023-04-01T22:30:07.740Z,9.04
2023-04-01T22:33:19.862Z,9.05
2023-04-01T22:36:25.359Z,8.98
2023-04-01T22:39:55.893Z,8.95
2023-04-01T22:43:13.794Z,8.86
2023-04-01T22:46:54.182Z,8.68
2023-04-01T22:50:25.514Z,8.52
2023-04-01T22:53:58.571Z,8.33
2023-04-01T22:57:16.498Z,8.18
2023-04-01T23:00:32.864Z,8.07
2023-04-01T23:03:42.374Z,7.99
2023-04-01T23:06:53.656Z,8.00
2023-04-01T23:09:58.823Z,7.99
2023-04-01T23:13:05.323Z,8.45
2023-04-01T23:16:10.750Z,8.90
2023-04-01T23:19:18.777Z,9.05
2023-04-01T23:22:36.793Z,9.43
2023-04-01T23:25:48.180Z,9.64
2023-04-01T23:28:53.006Z,9.67
2023-04-01T23:32:00.826Z,9.73
2023-04-01T23:35:03.632Z,9.70
2023-04-01T23:38:06.297Z,9.67
2023-04-01T23:41:21.518Z,9.66
2023-04-01T23:44:26.901Z,9.60
2023-04-01T23:47:31.959Z,9.59
2023-04-01T23:50:34.538Z,9.54
2023-04-01T23:53:45.535Z,9.52
2023-04-01T23:56:52.894Z,9.45
